Huvudsida
METAR-TAF:

METAR-TAF

Flygplatser :

St. George, Alaska, USA

latitud: 56-34-43N, longitud: 169-39-41W, höjd: 38 m

Aktuellt väderrapport

Denna rapport gjordes för 1 timme och 15 minuter sedan, klockan 22:53 UTC
Vind 15 kt från nordost
Temperatur 11°C
Fuktighet 66%
Tryck 1012 hPa
Sikt: 16.1 km
Klar himmel

METAR: PAPB 172253Z AUTO 05015KT 10SM CLR 11/05 A2988 RMK AO2 SLP105 T01060050 TSNO $

Tid: 16:08 (00:08 UTC)


TAF: saknas

Aktuella väderrapporter och prognoser från 4000 flygplatser (METAR- och TAF-rapporter).

De tillgängliga stationerna syns som gula och röda prickar på kartan.

För musen över prickarna för att se namnen på stationerna.

Klicka sedan för att få väderrapporter och prognoser.

För att ändra kartan: Klicka på de gröna knapparna med ett svart kors på för att zooma in; den gröna knappen med ett streck på för att zooma ut; eller på de gröna pilarna för angränsande kartor.


METAR-TAF: